Time,TemperatureF,DewpointF,PressureIn,WindDirection,WindDirectionDegrees,WindSpeedMPH,WindSpeedGustMPH,Humidity,HourlyPrecipIn,Conditions,Clouds,dailyrainin,SoftwareType,DateUTC
2013-01-14 00:30:00,28.1,24.1,29.11,WSW,248,2.2,2.2,85,0.00,,,0.00,WUHU216HW,2013-01-14 05:30:00,
2013-01-14 00:35:00,28.1,24.1,29.11,WSW,248,2.2,2.2,85,0.00,,,0.00,WUHU216HW,2013-01-14 05:35:00,
2013-01-14 10:00:00,22.0,15.9,29.40,West,270,2.5,2.5,77,0.00,,,0.00,WUHU216HW,2013-01-14 15:00:00,
2013-01-14 10:05:00,22.0,15.9,29.40,West,270,2.5,2.5,77,0.00,,,0.00,WUHU216HW,2013-01-14 15:05:00,
2013-01-14 10:10:00,22.0,15.9,29.40,West,270,2.5,2.5,77,0.00,,,0.00,WUHU216HW,2013-01-14 15:10:00,
2013-01-14 10:30:00,22.7,16.6,29.41,WNW,293,2.7,2.7,77,0.00,,,0.00,WUHU216HW,2013-01-14 15:30:00,
2013-01-14 10:35:00,22.7,16.6,29.41,WNW,293,2.7,2.7,77,0.00,,,0.00,WUHU216HW,2013-01-14 15:35:00,
2013-01-14 11:00:00,22.7,16.6,29.43,West,270,2.5,2.5,77,0.00,,,0.00,WUHU216HW,2013-01-14 16:00:00,
2013-01-14 11:05:00,22.7,16.6,29.43,West,270,2.5,2.5,77,0.00,,,0.00,WUHU216HW,2013-01-14 16:05:00,
2013-01-14 11:30:00,23.8,17.7,29.42,NNW,338,0.7,0.7,77,0.00,,,0.00,WUHU216HW,2013-01-14 16:30:00,
2013-01-14 11:35:00,23.8,17.7,29.42,NNW,338,0.7,0.7,77,0.00,,,0.00,WUHU216HW,2013-01-14 16:35:00,
2013-01-14 12:00:00,23.9,17.1,29.41,NNW,338,1.1,1.1,75,0.00,,,0.00,WUHU216HW,2013-01-14 17:00:00,
2013-01-14 12:05:00,23.9,17.1,29.41,NNW,338,1.1,1.1,75,0.00,,,0.00,WUHU216HW,2013-01-14 17:05:00,
2013-01-14 12:30:00,24.5,17.6,29.38,NNW,338,1.8,1.8,75,0.00,,,0.00,WUHU216HW,2013-01-14 17:30:00,
2013-01-14 12:35:00,24.5,17.6,29.38,NNW,338,1.8,1.8,75,0.00,,,0.00,WUHU216HW,2013-01-14 17:35:00,
2013-01-14 13:00:00,24.8,17.6,29.38,NW,315,2.2,2.2,74,0.00,,,0.00,WUHU216HW,2013-01-14 18:00:00,
2013-01-14 13:05:00,24.8,17.6,29.38,NW,315,2.2,2.2,74,0.00,,,0.00,WUHU216HW,2013-01-14 18:05:00,
2013-01-14 14:00:00,25.0,17.6,29.39,WNW,293,2.0,2.0,73,0.00,,,0.00,WUHU216HW,2013-01-14 19:00:00,
2013-01-14 14:05:00,25.0,17.6,29.39,WNW,293,2.0,2.0,73,0.00,,,0.00,WUHU216HW,2013-01-14 19:05:00,
2013-01-14 16:30:00,24.7,17.6,29.45,WSW,248,1.8,1.8,74,0.00,,,0.00,WUHU216HW,2013-01-14 21:30:00,
2013-01-14 16:35:00,24.7,17.6,29.45,WSW,248,1.8,1.8,74,0.00,,,0.00,WUHU216HW,2013-01-14 21:35:00,
2013-01-14 17:00:00,24.5,17.6,29.46,West,270,0.4,0.4,75,0.00,,,0.00,WUHU216HW,2013-01-14 22:00:00,
2013-01-14 22:30:00,17.5,12.8,29.42,West,270,0.0,0.0,82,0.00,,,0.00,WUHU216HW,2013-01-15 03:30:00,
2013-01-14 22:35:00,17.5,12.8,29.42,West,270,0.0,0.0,82,0.00,,,0.00,WUHU216HW,2013-01-15 03:35:00,
2013-01-14 23:00:00,16.9,12.6,29.41,West,270,0.0,0.0,83,0.00,,,0.00,WUHU216HW,2013-01-15 04:00:00,
2013-01-14 23:05:00,16.9,12.6,29.41,West,270,0.0,0.0,83,0.00,,,0.00,WUHU216HW,2013-01-15 04:05:00,
2013-01-14 23:30:00,16.2,11.9,29.42,West,270,0.0,0.0,83,0.00,,,0.00,WUHU216HW,2013-01-15 04:30:00,
2013-01-14 23:35:00,16.2,11.9,29.42,West,270,0.0,0.0,83,0.00,,,0.00,WUHU216HW,2013-01-15 04:35:00,